Time;durP1;ratioP1;P1;durP2;ratioP2;P2;SDS_P1;SDS_P2;PMS_P1;PMS_P2;Temp;Humidity;BMP_temperature;BMP_pressure;BME280_temperature;BME280_humidity;BME280_pressure;Samples;Min_cycle;Max_cycle;Signal;HPM_P1;HPM_P2
2023/06/18 00:00:05;;;;;;;;;23.00;22.25;;;;;;;;5018681;28;51266;-60
2023/06/18 00:02:31;;;;;;;;;23.25;22.00;;;;;;;;5022127;28;51067;-61
2023/06/18 00:04:56;;;;;;;;;21.25;20.50;;;;;;;;5021337;28;50965;-60
2023/06/18 00:07:21;;;;;;;;;20.75;19.75;;;;;;;;5023738;28;51124;-60
2023/06/18 00:09:46;;;;;;;;;27.25;26.50;;;;;;;;5017223;28;51163;-60
2023/06/18 00:12:12;;;;;;;;;24.25;24.25;;;;;;;;5021703;28;51106;-60
2023/06/18 00:14:37;;;;;;;;;21.00;21.00;;;;;;;;5020893;28;51342;-60
2023/06/18 00:17:02;;;;;;;;;23.25;23.25;;;;;;;;5025924;28;51154;-60
2023/06/18 00:19:27;;;;;;;;;20.75;20.00;;;;;;;;5020964;28;50867;-60
2023/06/18 00:21:53;;;;;;;;;25.25;24.50;;;;;;;;5020325;28;51054;-60
2023/06/18 00:24:18;;;;;;;;;22.25;20.50;;;;;;;;5016792;28;51075;-60
2023/06/18 00:26:43;;;;;;;;;26.00;26.00;;;;;;;;5023410;28;51271;-60
2023/06/18 00:29:08;;;;;;;;;22.00;22.00;;;;;;;;5018651;28;51021;-59
2023/06/18 00:31:33;;;;;;;;;23.50;22.50;;;;;;;;5021151;28;51328;-59
2023/06/18 00:34:06;;;;;;;;;22.75;22.50;;;;;;;;5021626;28;51831;-60
2023/06/18 00:36:32;;;;;;;;;21.00;21.00;;;;;;;;5020056;28;51095;-60
2023/06/18 00:38:57;;;;;;;;;25.00;24.00;;;;;;;;5021127;28;51249;-60
2023/06/18 00:41:24;;;;;;;;;22.50;22.00;;;;;;;;5024178;28;51099;-63
2023/06/18 00:43:49;;;;;;;;;19.00;18.25;;;;;;;;5019185;28;51921;-60
2023/06/18 00:46:17;;;;;;;;;23.25;22.00;;;;;;;;5014852;28;53159;-60
2023/06/18 00:48:42;;;;;;;;;22.75;22.25;;;;;;;;5023362;28;51275;-60
2023/06/18 00:51:07;;;;;;;;;21.25;21.25;;;;;;;;5018836;28;51132;-60
2023/06/18 00:53:33;;;;;;;;;20.50;20.00;;;;;;;;5015602;28;51235;-60
2023/06/18 00:55:58;;;;;;;;;21.75;21.50;;;;;;;;5021978;28;51922;-60
2023/06/18 00:58:25;;;;;;;;;23.50;22.25;;;;;;;;5019550;28;51215;-60
2023/06/18 01:00:53;;;;;;;;;26.00;25.50;;;;;;;;5019622;28;51767;-59
2023/06/18 01:03:20;;;;;;;;;23.00;22.00;;;;;;;;5018295;28;51477;-59
2023/06/18 01:05:57;;;;;;;;;25.00;25.00;;;;;;;;5016670;28;52629;-59
2023/06/18 01:08:23;;;;;;;;;27.50;25.50;;;;;;;;5021609;28;51226;-59
2023/06/18 01:11:01;;;;;;;;;26.25;25.75;;;;;;;;5021936;28;51316;-61
2023/06/18 01:13:30;;;;;;;;;23.25;22.50;;;;;;;;5017616;28;51411;-61
2023/06/18 01:15:55;;;;;;;;;25.00;24.50;;;;;;;;5020759;28;51976;-61
2023/06/18 01:18:21;;;;;;;;;19.25;18.75;;;;;;;;5031905;28;50997;-61
2023/06/18 01:20:49;;;;;;;;;19.75;18.75;;;;;;;;5027877;28;50997;-61
2023/06/18 01:23:17;;;;;;;;;17.75;17.00;;;;;;;;5028812;28;51744;-60
2023/06/18 01:25:44;;;;;;;;;18.25;17.00;;;;;;;;5030795;28;52194;-61
2023/06/18 01:28:10;;;;;;;;;19.00;19.00;;;;;;;;5014273;28;51201;-61
2023/06/18 01:30:39;;;;;;;;;18.50;18.50;;;;;;;;5018014;28;51074;-60
2023/06/18 01:33:04;;;;;;;;;20.00;19.25;;;;;;;;5018295;28;52958;-61
2023/06/18 01:35:29;;;;;;;;;19.75;19.25;;;;;;;;5021464;28;51908;-61
2023/06/18 01:38:01;;;;;;;;;17.75;17.00;;;;;;;;5017376;28;51297;-60
2023/06/18 01:40:45;;;;;;;;;19.25;19.25;;;;;;;;5018774;28;51160;-61
2023/06/18 01:43:28;;;;;;;;;18.00;18.00;;;;;;;;5022376;28;51376;-60
2023/06/18 01:45:59;;;;;;;;;16.00;16.00;;;;;;;;5024930;28;52405;-59
2023/06/18 01:48:26;;;;;;;;;18.25;17.25;;;;;;;;5025838;28;51563;-60
2023/06/18 01:50:52;;;;;;;;;17.00;16.25;;;;;;;;5024945;28;51474;-61
2023/06/18 01:53:18;;;;;;;;;18.75;17.75;;;;;;;;5028539;28;51106;-60
2023/06/18 01:55:44;;;;;;;;;17.75;17.75;;;;;;;;5023646;28;51056;-60
2023/06/18 01:58:09;;;;;;;;;17.25;17.00;;;;;;;;5015571;28;51224;-61
2023/06/18 02:00:35;;;;;;;;;22.25;22.00;;;;;;;;5030583;28;51251;-60
2023/06/18 02:03:00;;;;;;;;;18.75;18.75;;;;;;;;5023712;28;51308;-61
2023/06/18 02:05:25;;;;;;;;;18.75;18.75;;;;;;;;5025620;28;51702;-61
2023/06/18 02:07:50;;;;;;;;;19.75;19.25;;;;;;;;5023488;28;51216;-60
2023/06/18 02:10:15;;;;;;;;;17.75;16.75;;;;;;;;5029540;28;51326;-60
2023/06/18 02:12:41;;;;;;;;;22.50;21.25;;;;;;;;5027754;28;51089;-60
2023/06/18 02:15:06;;;;;;;;;16.50;16.50;;;;;;;;5026670;28;51778;-60
2023/06/18 02:17:31;;;;;;;;;17.25;16.25;;;;;;;;5026012;28;51147;-60
2023/06/18 02:19:57;;;;;;;;;15.75;15.75;;;;;;;;5022585;28;50972;-60
2023/06/18 02:22:23;;;;;;;;;16.25;15.25;;;;;;;;5019275;28;50989;-60
2023/06/18 02:24:49;;;;;;;;;18.00;16.00;;;;;;;;5022785;28;52251;-60
2023/06/18 02:27:15;;;;;;;;;18.75;18.25;;;;;;;;5025365;28;51040;-60
2023/06/18 02:29:41;;;;;;;;;18.00;17.50;;;;;;;;5025873;28;51103;-60
2023/06/18 02:32:06;;;;;;;;;17.25;16.50;;;;;;;;5023305;28;51129;-61
2023/06/18 02:34:31;;;;;;;;;17.75;17.00;;;;;;;;5021656;28;51957;-60
2023/06/18 02:36:57;;;;;;;;;17.25;17.25;;;;;;;;5026763;28;51119;-60
2023/06/18 02:39:22;;;;;;;;;18.50;18.50;;;;;;;;5021163;28;51065;-60
2023/06/18 02:41:47;;;;;;;;;17.75;17.00;;;;;;;;5014723;28;51267;-60
2023/06/18 02:44:12;;;;;;;;;18.00;17.00;;;;;;;;5015124;28;50953;-60
2023/06/18 02:46:38;;;;;;;;;21.75;20.25;;;;;;;;5014418;28;51044;-60
2023/06/18 02:49:03;;;;;;;;;19.00;18.00;;;;;;;;5019787;28;51070;-60
2023/06/18 02:51:28;;;;;;;;;19.75;19.75;;;;;;;;5032950;28;51106;-60
2023/06/18 02:53:53;;;;;;;;;21.50;18.75;;;;;;;;5021285;28;52296;-60
2023/06/18 02:56:19;;;;;;;;;18.25;18.25;;;;;;;;5025691;28;51104;-60
2023/06/18 02:58:46;;;;;;;;;16.25;15.50;;;;;;;;5032275;28;50862;-60
2023/06/18 03:01:12;;;;;;;;;17.25;16.00;;;;;;;;5022979;28;51116;-60
2023/06/18 03:03:37;;;;;;;;;17.75;17.75;;;;;;;;5024646;28;51680;-60
2023/06/18 03:06:02;;;;;;;;;15.50;15.50;;;;;;;;5033682;28;50981;-60
2023/06/18 03:08:27;;;;;;;;;16.50;16.50;;;;;;;;5031015;28;51271;-60
2023/06/18 03:10:53;;;;;;;;;15.00;14.50;;;;;;;;5022059;28;51328;-60
2023/06/18 03:13:18;;;;;;;;;14.25;14.00;;;;;;;;5021893;28;51695;-60
2023/06/18 03:15:43;;;;;;;;;13.00;12.00;;;;;;;;5027719;28;51112;-60
2023/06/18 03:18:09;;;;;;;;;10.67;10.67;;;;;;;;5022086;28;51250;-60
2023/06/18 03:20:34;;;;;;;;;12.00;12.00;;;;;;;;5023093;28;51432;-59
2023/06/18 03:22:59;;;;;;;;;12.00;11.33;;;;;;;;5032609;28;52828;-59
2023/06/18 03:25:25;;;;;;;;;10.33;10.00;;;;;;;;5033480;28;51012;-59
2023/06/18 03:27:53;;;;;;;;;10.67;10.33;;;;;;;;5033835;28;51148;-60
2023/06/18 03:30:18;;;;;;;;;11.00;10.00;;;;;;;;5031955;28;51099;-59
2023/06/18 03:32:43;;;;;;;;;10.00;9.33;;;;;;;;5031228;28;51889;-60
2023/06/18 03:35:09;;;;;;;;;13.00;13.00;;;;;;;;5020024;28;52725;-61
2023/06/18 03:37:35;;;;;;;;;12.00;11.00;;;;;;;;5012945;28;51006;-61
2023/06/18 03:40:03;;;;;;;;;13.00;13.00;;;;;;;;5019948;28;50958;-60
2023/06/18 03:42:28;;;;;;;;;10.33;10.33;;;;;;;;5028244;28;51791;-61
2023/06/18 03:44:53;;;;;;;;;9.67;9.67;;;;;;;;5014247;28;50904;-60
2023/06/18 03:47:19;;;;;;;;;11.00;10.67;;;;;;;;5020198;28;51266;-61
2023/06/18 03:49:44;;;;;;;;;10.33;10.33;;;;;;;;5022023;28;51068;-61
2023/06/18 03:52:10;;;;;;;;;9.33;9.33;;;;;;;;5027317;28;51850;-61
2023/06/18 03:54:35;;;;;;;;;9.00;8.00;;;;;;;;5017732;28;51662;-61
2023/06/18 03:57:01;;;;;;;;;10.33;10.33;;;;;;;;5019515;28;51164;-61
2023/06/18 03:59:27;;;;;;;;;10.00;10.00;;;;;;;;5013880;28;51255;-61
2023/06/18 04:01:52;;;;;;;;;13.33;12.00;;;;;;;;5015551;28;51695;-61
2023/06/18 04:04:17;;;;;;;;;10.67;10.67;;;;;;;;5021548;28;51357;-61
2023/06/18 04:06:42;;;;;;;;;9.00;9.00;;;;;;;;5031370;28;51120;-60
2023/06/18 04:09:08;;;;;;;;;9.67;9.33;;;;;;;;5028871;28;50823;-61
2023/06/18 04:11:33;;;;;;;;;7.00;7.00;;;;;;;;5026516;28;52812;-61
2023/06/18 04:13:59;;;;;;;;;9.00;8.00;;;;;;;;5016551;28;50859;-61
2023/06/18 04:16:24;;;;;;;;;6.67;6.67;;;;;;;;5013710;28;50867;-61
2023/06/18 04:18:49;;;;;;;;;6.00;6.00;;;;;;;;5013616;28;51053;-60
2023/06/18 04:21:14;;;;;;;;;3.33;3.33;;;;;;;;5017627;28;51778;-60
2023/06/18 04:23:40;;;;;;;;;6.33;6.33;;;;;;;;5016482;28;51113;-59
2023/06/18 04:26:06;;;;;;;;;5.67;4.33;;;;;;;;5013506;28;51267;-60
2023/06/18 04:28:31;;;;;;;;;5.33;5.33;;;;;;;;5014531;28;51285;-59
2023/06/18 04:30:56;;;;;;;;;8.33;6.67;;;;;;;;5013182;28;51739;-61
2023/06/18 04:33:21;;;;;;;;;6.67;6.33;;;;;;;;5031817;28;51021;-60
2023/06/18 04:35:46;;;;;;;;;7.00;6.33;;;;;;;;5023767;28;51104;-60
2023/06/18 04:38:12;;;;;;;;;7.33;7.33;;;;;;;;5013513;28;51085;-60
2023/06/18 04:40:37;;;;;;;;;7.00;7.00;;;;;;;;5026438;28;51111;-60
2023/06/18 04:43:02;;;;;;;;;8.25;8.00;;;;;;;;5013830;28;51112;-60
2023/06/18 04:45:27;;;;;;;;;9.33;8.33;;;;;;;;5012770;28;51247;-60
2023/06/18 04:47:53;;;;;;;;;7.67;7.67;;;;;;;;5015247;28;51110;-60
2023/06/18 04:50:18;;;;;;;;;12.00;10.00;;;;;;;;5017223;28;52662;-60
2023/06/18 04:52:44;;;;;;;;;12.00;11.67;;;;;;;;5013158;28;51075;-60
2023/06/18 04:55:10;;;;;;;;;13.50;13.00;;;;;;;;5012831;28;51103;-60
2023/06/18 04:57:35;;;;;;;;;12.00;12.00;;;;;;;;5031270;28;51281;-60
2023/06/18 05:00:02;;;;;;;;;17.75;16.00;;;;;;;;5032451;28;52311;-60
2023/06/18 05:02:27;;;;;;;;;20.75;20.75;;;;;;;;5032088;28;51139;-60
2023/06/18 05:04:52;;;;;;;;;18.50;17.50;;;;;;;;5020058;28;51239;-60
2023/06/18 05:07:17;;;;;;;;;17.50;16.75;;;;;;;;5014383;28;51159;-60
2023/06/18 05:09:42;;;;;;;;;22.25;20.25;;;;;;;;5028093;28;52385;-60
2023/06/18 05:12:08;;;;;;;;;17.00;17.00;;;;;;;;5013106;28;50939;-61
2023/06/18 05:14:33;;;;;;;;;17.25;17.00;;;;;;;;5024625;28;51258;-61
2023/06/18 05:16:59;;;;;;;;;16.25;16.00;;;;;;;;5015354;28;52718;-61
2023/06/18 05:19:24;;;;;;;;;19.00;17.75;;;;;;;;5029034;28;52255;-61
2023/06/18 05:21:49;;;;;;;;;17.00;17.00;;;;;;;;5025654;28;52155;-60
2023/06/18 05:24:14;;;;;;;;;15.25;14.75;;;;;;;;5012895;28;51284;-60
2023/06/18 05:26:39;;;;;;;;;13.00;13.00;;;;;;;;5023470;28;51313;-60
2023/06/18 05:29:05;;;;;;;;;11.67;11.33;;;;;;;;5015510;28;51718;-61
2023/06/18 05:31:30;;;;;;;;;6.00;6.00;;;;;;;;5022668;28;50941;-59
2023/06/18 05:33:55;;;;;;;;;9.33;9.33;;;;;;;;5019499;28;51282;-60
2023/06/18 05:36:22;;;;;;;;;9.33;9.33;;;;;;;;5025621;28;51254;-60
2023/06/18 05:38:47;;;;;;;;;9.00;9.00;;;;;;;;5028004;28;51762;-60
2023/06/18 05:41:12;;;;;;;;;10.33;10.33;;;;;;;;5014916;28;51013;-61
2023/06/18 05:43:38;;;;;;;;;8.33;8.00;;;;;;;;5031568;28;51062;-60
2023/06/18 05:46:03;;;;;;;;;12.00;11.67;;;;;;;;5034442;28;50937;-61
2023/06/18 05:48:28;;;;;;;;;10.33;10.00;;;;;;;;5029071;28;51230;-60
2023/06/18 05:50:53;;;;;;;;;12.00;12.00;;;;;;;;5034512;28;51356;-59
2023/06/18 05:53:18;;;;;;;;;9.67;9.67;;;;;;;;5034181;28;51188;-60
2023/06/18 05:55:44;;;;;;;;;10.67;10.00;;;;;;;;5032540;28;50997;-60
2023/06/18 05:58:09;;;;;;;;;9.67;9.67;;;;;;;;5014724;28;51708;-61
2023/06/18 06:00:35;;;;;;;;;14.33;12.33;;;;;;;;5014057;28;51026;-61
2023/06/18 06:03:00;;;;;;;;;12.33;12.00;;;;;;;;5023536;28;51273;-61
2023/06/18 06:05:25;;;;;;;;;10.00;10.00;;;;;;;;5023456;28;51894;-60
2023/06/18 06:07:50;;;;;;;;;10.00;10.00;;;;;;;;5021052;28;53609;-61
2023/06/18 06:10:16;;;;;;;;;11.67;11.33;;;;;;;;5020277;28;51251;-61
2023/06/18 06:12:41;;;;;;;;;8.00;8.00;;;;;;;;5023827;28;51020;-60
2023/06/18 06:15:07;;;;;;;;;10.67;10.67;;;;;;;;5015298;28;51135;-59
2023/06/18 06:17:32;;;;;;;;;9.33;9.33;;;;;;;;5027771;28;51731;-59
2023/06/18 06:19:57;;;;;;;;;10.33;10.00;;;;;;;;5026671;28;50838;-59
2023/06/18 06:22:22;;;;;;;;;8.00;8.00;;;;;;;;5021363;28;51005;-61
2023/06/18 06:24:47;;;;;;;;;11.00;11.00;;;;;;;;5025815;28;51132;-60
2023/06/18 06:27:13;;;;;;;;;5.67;5.00;;;;;;;;5028795;28;51840;-60
2023/06/18 06:29:38;;;;;;;;;12.00;12.00;;;;;;;;5027818;28;51182;-61
2023/06/18 06:32:03;;;;;;;;;9.33;9.33;;;;;;;;5019694;28;51388;-61
2023/06/18 06:34:29;;;;;;;;;11.00;10.33;;;;;;;;5013563;28;51122;-61
2023/06/18 06:36:54;;;;;;;;;9.67;9.67;;;;;;;;5022296;28;52730;-61
2023/06/18 06:39:20;;;;;;;;;12.33;12.33;;;;;;;;5021471;28;51270;-60
2023/06/18 06:41:45;;;;;;;;;15.00;15.00;;;;;;;;5021475;28;51030;-60
2023/06/18 06:44:10;;;;;;;;;16.00;14.00;;;;;;;;5015970;28;51000;-61
2023/06/18 06:46:36;;;;;;;;;15.67;14.67;;;;;;;;5017329;28;51929;-61
2023/06/18 06:49:03;;;;;;;;;12.00;12.00;;;;;;;;5026736;28;51397;-61
2023/06/18 06:51:28;;;;;;;;;12.00;11.00;;;;;;;;5022434;28;51065;-60
2023/06/18 06:53:53;;;;;;;;;13.00;12.00;;;;;;;;5026242;28;51099;-60
2023/06/18 06:56:18;;;;;;;;;12.33;12.33;;;;;;;;5023147;28;51255;-62
2023/06/18 06:58:43;;;;;;;;;15.33;14.00;;;;;;;;5036100;28;50983;-61
2023/06/18 07:01:09;;;;;;;;;12.33;12.33;;;;;;;;5032143;28;51141;-61
2023/06/18 07:03:35;;;;;;;;;13.00;13.00;;;;;;;;5029185;28;51210;-60
2023/06/18 07:06:00;;;;;;;;;13.33;13.33;;;;;;;;5027783;28;52602;-60
2023/06/18 07:08:25;;;;;;;;;14.00;14.00;;;;;;;;5028773;28;51136;-62
2023/06/18 07:10:51;;;;;;;;;13.67;13.00;;;;;;;;5032455;28;52138;-62
2023/06/18 07:13:16;;;;;;;;;14.00;14.00;;;;;;;;5028030;28;51381;-61
2023/06/18 07:15:41;;;;;;;;;10.33;10.00;;;;;;;;5023107;28;51370;-62
2023/06/18 07:18:06;;;;;;;;;15.00;14.67;;;;;;;;5025429;28;51114;-61
2023/06/18 07:20:32;;;;;;;;;16.00;15.33;;;;;;;;5021087;28;53615;-61
2023/06/18 07:22:57;;;;;;;;;13.33;13.33;;;;;;;;5031683;28;51589;-60
2023/06/18 07:25:22;;;;;;;;;15.00;15.00;;;;;;;;5019129;28;51181;-60
2023/06/18 07:27:47;;;;;;;;;15.00;14.00;;;;;;;;5013856;28;50990;-60
2023/06/18 07:30:13;;;;;;;;;12.75;12.75;;;;;;;;5028621;28;50939;-60
2023/06/18 07:32:38;;;;;;;;;14.00;14.00;;;;;;;;5021712;28;51593;-61
2023/06/18 07:35:03;;;;;;;;;13.67;13.00;;;;;;;;5023571;28;51050;-61
2023/06/18 07:37:29;;;;;;;;;15.00;15.00;;;;;;;;5025100;28;51216;-60
2023/06/18 07:39:54;;;;;;;;;11.75;11.50;;;;;;;;5029260;28;51150;-60
2023/06/18 07:42:20;;;;;;;;;13.00;13.00;;;;;;;;5028729;28;51367;-59
2023/06/18 07:44:46;;;;;;;;;14.33;13.67;;;;;;;;5012403;28;52180;-61
2023/06/18 07:47:11;;;;;;;;;12.33;12.33;;;;;;;;5018123;28;51014;-59
2023/06/18 07:49:36;;;;;;;;;13.00;13.00;;;;;;;;5030780;28;51138;-61
2023/06/18 07:52:02;;;;;;;;;14.00;13.00;;;;;;;;5024836;28;51127;-61
2023/06/18 07:54:27;;;;;;;;;10.75;10.75;;;;;;;;5016968;28;52721;-61
2023/06/18 07:56:52;;;;;;;;;12.33;11.67;;;;;;;;5018289;28;51027;-61
2023/06/18 07:59:17;;;;;;;;;16.00;15.67;;;;;;;;5026621;28;51086;-60
2023/06/18 08:01:43;;;;;;;;;13.00;12.33;;;;;;;;5032188;28;51191;-60
2023/06/18 08:04:08;;;;;;;;;12.33;12.33;;;;;;;;5013418;28;51648;-60
2023/06/18 08:06:33;;;;;;;;;11.00;11.00;;;;;;;;5018632;28;51047;-60
2023/06/18 08:08:58;;;;;;;;;13.00;12.67;;;;;;;;5024554;28;51222;-60
2023/06/18 08:11:24;;;;;;;;;13.33;13.33;;;;;;;;5030445;28;51647;-60
2023/06/18 08:13:49;;;;;;;;;13.67;13.33;;;;;;;;5030648;28;52550;-60
2023/06/18 08:16:14;;;;;;;;;10.67;10.33;;;;;;;;5029023;28;51210;-60
2023/06/18 08:18:40;;;;;;;;;17.00;15.33;;;;;;;;5024260;28;52230;-60
2023/06/18 08:21:05;;;;;;;;;18.00;17.00;;;;;;;;5021165;28;51474;-61
2023/06/18 08:23:30;;;;;;;;;16.00;16.00;;;;;;;;5024371;28;51768;-60
2023/06/18 08:25:56;;;;;;;;;16.75;16.25;;;;;;;;5020153;28;51022;-60
2023/06/18 08:28:21;;;;;;;;;17.00;16.67;;;;;;;;5025649;28;50957;-60
2023/06/18 08:30:46;;;;;;;;;15.75;15.75;;;;;;;;5028852;28;51164;-60
2023/06/18 08:33:11;;;;;;;;;14.67;14.00;;;;;;;;5018407;28;50975;-59
2023/06/18 08:35:39;;;;;;;;;13.75;13.75;;;;;;;;5026334;28;52495;-59
2023/06/18 08:38:04;;;;;;;;;14.33;14.00;;;;;;;;5020247;28;51216;-59
2023/06/18 08:40:34;;;;;;;;;18.00;17.00;;;;;;;;5025522;28;51050;-60
2023/06/18 08:42:59;;;;;;;;;14.00;14.00;;;;;;;;5014516;28;52803;-60
2023/06/18 08:45:25;;;;;;;;;14.00;14.00;;;;;;;;5030193;28;50980;-58
2023/06/18 08:47:55;;;;;;;;;15.33;14.33;;;;;;;;5022778;28;51180;-60
2023/06/18 08:50:20;;;;;;;;;12.67;12.67;;;;;;;;5020640;28;51149;-59
2023/06/18 08:52:48;;;;;;;;;13.00;13.00;;;;;;;;5018176;28;51922;-60
2023/06/18 08:55:14;;;;;;;;;15.33;14.67;;;;;;;;5031431;28;50957;-61
2023/06/18 08:57:43;;;;;;;;;13.33;13.33;;;;;;;;5017923;28;51151;-61
2023/06/18 09:00:09;;;;;;;;;14.33;14.00;;;;;;;;5027156;28;51044;-60
2023/06/18 09:02:34;;;;;;;;;15.00;15.00;;;;;;;;5029298;28;51505;-61
2023/06/18 09:05:00;;;;;;;;;15.67;14.67;;;;;;;;5020405;28;51345;-61
2023/06/18 09:07:26;;;;;;;;;16.33;16.00;;;;;;;;5030330;28;51049;-61
2023/06/18 09:09:51;;;;;;;;;14.50;14.50;;;;;;;;5028598;28;51238;-60
2023/06/18 09:12:16;;;;;;;;;15.00;13.25;;;;;;;;5019209;28;51105;-61
2023/06/18 09:14:41;;;;;;;;;15.50;14.75;;;;;;;;5014419;28;51144;-60
2023/06/18 09:17:07;;;;;;;;;16.67;16.33;;;;;;;;5020402;28;51083;-62
2023/06/18 09:19:32;;;;;;;;;17.00;16.00;;;;;;;;5011544;28;51032;-60
2023/06/18 09:22:10;;;;;;;;;14.00;14.00;;;;;;;;5020839;28;51539;-60
2023/06/18 09:24:35;;;;;;;;;14.33;13.33;;;;;;;;5026110;28;51009;-60
2023/06/18 09:27:02;;;;;;;;;17.33;16.33;;;;;;;;5024363;28;50850;-60
2023/06/18 09:29:28;;;;;;;;;16.00;15.50;;;;;;;;5025986;28;51184;-60
2023/06/18 09:31:54;;;;;;;;;16.50;16.00;;;;;;;;5027179;28;53098;-62
2023/06/18 09:34:19;;;;;;;;;16.00;15.50;;;;;;;;5024902;28;51187;-61
2023/06/18 09:36:48;;;;;;;;;16.67;16.67;;;;;;;;5019914;28;51526;-60
2023/06/18 09:39:17;;;;;;;;;15.25;14.75;;;;;;;;5028242;28;51430;-61
2023/06/18 09:41:43;;;;;;;;;17.25;17.25;;;;;;;;5017426;28;52344;-60
2023/06/18 09:44:09;;;;;;;;;20.50;20.25;;;;;;;;5028349;28;52004;-59
2023/06/18 09:46:34;;;;;;;;;20.75;19.75;;;;;;;;5017624;28;51059;-60
2023/06/18 09:49:00;;;;;;;;;21.00;21.00;;;;;;;;5022795;28;51181;-61
2023/06/18 09:51:25;;;;;;;;;18.00;17.50;;;;;;;;5025761;28;52143;-59
2023/06/18 09:53:58;;;;;;;;;21.25;21.25;;;;;;;;5027419;28;51055;-60
2023/06/18 09:56:23;;;;;;;;;19.75;19.50;;;;;;;;5026501;28;51223;-56
2023/06/18 09:58:50;;;;;;;;;20.75;20.25;;;;;;;;5022442;28;51450;-55
2023/06/18 10:01:16;;;;;;;;;19.50;18.75;;;;;;;;5012490;28;52164;-58
2023/06/18 10:03:42;;;;;;;;;16.00;16.00;;;;;;;;5020318;28;51185;-58
2023/06/18 10:06:10;;;;;;;;;20.50;20.25;;;;;;;;5014861;28;51169;-57
2023/06/18 10:08:37;;;;;;;;;29.25;28.25;;;;;;;;5030433;28;50871;-57
2023/06/18 10:11:02;;;;;;;;;25.75;24.25;;;;;;;;5017316;28;52268;-57
2023/06/18 10:13:28;;;;;;;;;20.25;20.25;;;;;;;;5030829;28;50983;-57
2023/06/18 10:15:55;;;;;;;;;19.50;19.00;;;;;;;;5029553;28;51203;-56
2023/06/18 10:18:23;;;;;;;;;24.25;23.50;;;;;;;;5028081;28;51387;-57
2023/06/18 10:20:50;;;;;;;;;21.25;21.25;;;;;;;;5027592;28;51866;-56
2023/06/18 10:23:17;;;;;;;;;20.50;20.25;;;;;;;;5034414;28;51123;-57
2023/06/18 10:25:43;;;;;;;;;22.75;22.50;;;;;;;;5030728;28;51011;-57
2023/06/18 10:28:08;;;;;;;;;20.00;20.00;;;;;;;;5023193;28;50816;-57
2023/06/18 10:30:34;;;;;;;;;20.75;20.25;;;;;;;;5033289;28;51863;-56
2023/06/18 10:32:59;;;;;;;;;22.25;21.75;;;;;;;;5034357;28;50981;-56
2023/06/18 10:35:25;;;;;;;;;22.75;22.25;;;;;;;;5021460;28;50977;-57
2023/06/18 10:37:51;;;;;;;;;23.25;23.25;;;;;;;;5032543;28;50993;-56
2023/06/18 10:40:16;;;;;;;;;21.00;21.00;;;;;;;;5032638;28;51916;-57
2023/06/18 10:42:46;;;;;;;;;23.00;23.00;;;;;;;;5029380;28;51103;-56
2023/06/18 10:45:13;;;;;;;;;25.00;23.50;;;;;;;;5026130;28;52774;-57
2023/06/18 10:47:39;;;;;;;;;25.00;24.75;;;;;;;;5029730;28;51304;-58
2023/06/18 10:50:06;;;;;;;;;23.75;23.25;;;;;;;;5028851;28;51076;-60
2023/06/18 10:52:33;;;;;;;;;22.25;21.25;;;;;;;;5028919;28;51001;-57
2023/06/18 10:55:06;;;;;;;;;23.00;23.00;;;;;;;;5029309;28;50992;-58
2023/06/18 10:57:31;;;;;;;;;24.25;23.75;;;;;;;;5025636;28;50958;-56
2023/06/18 10:59:56;;;;;;;;;24.75;24.75;;;;;;;;5021932;28;51664;-58
2023/06/18 11:02:32;;;;;;;;;21.00;21.00;;;;;;;;5031999;28;51064;-58
2023/06/18 11:04:57;;;;;;;;;20.75;20.75;;;;;;;;5033829;28;51111;-57
2023/06/18 11:07:27;;;;;;;;;22.00;22.00;;;;;;;;5016021;28;50939;-58
2023/06/18 11:09:52;;;;;;;;;27.50;26.00;;;;;;;;5031177;28;51737;-58
2023/06/18 11:12:22;;;;;;;;;23.75;23.75;;;;;;;;5031476;28;50899;-57
2023/06/18 11:15:26;;;;;;;;;23.00;22.50;;;;;;;;5012268;28;51058;-57
2023/06/18 11:17:53;;;;;;;;;22.50;22.50;;;;;;;;4981083;28;50991;-57
2023/06/18 11:20:19;;;;;;;;;24.75;23.50;;;;;;;;4991004;28;52644;-58
2023/06/18 11:22:44;;;;;;;;;23.50;23.50;;;;;;;;5009551;28;51066;-58
2023/06/18 11:25:12;;;;;;;;;22.25;21.75;;;;;;;;5025853;28;51243;-58
2023/06/18 11:27:45;;;;;;;;;18.00;18.00;;;;;;;;5015702;28;50921;-58
2023/06/18 11:30:11;;;;;;;;;25.50;23.50;;;;;;;;5031060;28;52078;-57
2023/06/18 11:32:36;;;;;;;;;20.50;18.25;;;;;;;;5026189;28;50843;-57
2023/06/18 11:35:01;;;;;;;;;25.25;23.50;;;;;;;;5014243;28;50851;-57
2023/06/18 11:37:30;;;;;;;;;24.50;24.00;;;;;;;;5028110;28;51238;-56
2023/06/18 11:39:55;;;;;;;;;25.25;23.75;;;;;;;;5021941;28;52041;-58
2023/06/18 11:42:21;;;;;;;;;23.50;22.50;;;;;;;;5012387;28;50992;-56
2023/06/18 11:44:53;;;;;;;;;25.25;23.50;;;;;;;;5033017;28;51084;-58
2023/06/18 11:47:19;;;;;;;;;19.50;18.50;;;;;;;;5032647;28;51262;-57
2023/06/18 11:49:45;;;;;;;;;24.50;21.50;;;;;;;;5026273;28;51106;-56
2023/06/18 11:52:17;;;;;;;;;22.50;21.50;;;;;;;;5023067;28;51193;-58
2023/06/18 11:54:43;;;;;;;;;22.50;21.50;;;;;;;;5025925;28;51054;-57
2023/06/18 11:57:12;;;;;;;;;17.50;17.50;;;;;;;;5032081;28;51151;-58
2023/06/18 11:59:40;;;;;;;;;21.00;20.50;;;;;;;;5023034;28;51151;-57
2023/06/18 12:02:09;;;;;;;;;20.25;20.25;;;;;;;;5019010;28;51072;-58
2023/06/18 12:04:34;;;;;;;;;20.25;19.50;;;;;;;;5028656;28;51044;-57
2023/06/18 12:06:59;;;;;;;;;21.75;20.75;;;;;;;;5030255;28;50985;-58
2023/06/18 12:09:30;;;;;;;;;18.67;18.00;;;;;;;;5032107;28;50960;-57
2023/06/18 12:12:07;;;;;;;;;20.50;20.00;;;;;;;;5031084;28;51005;-57
2023/06/18 12:14:36;;;;;;;;;15.50;14.75;;;;;;;;5032008;28;51124;-57
2023/06/18 12:17:06;;;;;;;;;18.75;18.75;;;;;;;;5021763;28;51346;-57
2023/06/18 12:19:32;;;;;;;;;17.00;17.00;;;;;;;;5030359;28;51945;-58
2023/06/18 12:21:58;;;;;;;;;17.75;17.25;;;;;;;;5024526;28;52892;-57
2023/06/18 12:24:26;;;;;;;;;15.75;15.00;;;;;;;;5018508;28;51069;-57
2023/06/18 12:26:51;;;;;;;;;20.50;20.00;;;;;;;;5027798;28;51150;-56
2023/06/18 12:29:18;;;;;;;;;14.67;14.00;;;;;;;;5030755;28;52015;-57
2023/06/18 12:31:43;;;;;;;;;15.33;15.33;;;;;;;;5018942;28;51190;-59
2023/06/18 12:34:22;;;;;;;;;16.33;15.33;;;;;;;;5014421;28;51029;-57
2023/06/18 12:36:47;;;;;;;;;18.33;18.33;;;;;;;;5028990;28;51066;-57
2023/06/18 12:39:14;;;;;;;;;16.00;15.50;;;;;;;;5031394;28;51913;-56
2023/06/18 12:41:40;;;;;;;;;17.50;17.50;;;;;;;;5012537;28;51088;-57
2023/06/18 12:44:05;;;;;;;;;14.67;14.67;;;;;;;;5029896;28;51289;-57
2023/06/18 12:46:31;;;;;;;;;19.75;18.50;;;;;;;;5024432;28;51066;-57
2023/06/18 12:48:59;;;;;;;;;13.33;13.33;;;;;;;;5029401;28;51833;-57
2023/06/18 12:51:42;;;;;;;;;11.33;10.67;;;;;;;;5025671;28;51215;-57
2023/06/18 12:54:14;;;;;;;;;11.67;10.00;;;;;;;;5027833;28;51151;-57
2023/06/18 12:56:49;;;;;;;;;12.67;11.67;;;;;;;;5025395;28;51215;-57
2023/06/18 12:59:19;;;;;;;;;13.33;13.00;;;;;;;;5017723;28;51024;-57
2023/06/18 13:01:45;;;;;;;;;12.00;12.00;;;;;;;;5031532;28;51141;-57
2023/06/18 13:04:16;;;;;;;;;15.67;15.00;;;;;;;;5031628;28;51082;-57
2023/06/18 13:06:41;;;;;;;;;19.00;18.67;;;;;;;;5019917;28;51153;-58
2023/06/18 13:09:06;;;;;;;;;15.00;15.00;;;;;;;;5027185;28;52210;-58
2023/06/18 13:11:38;;;;;;;;;14.67;14.67;;;;;;;;5031636;28;51049;-56
2023/06/18 13:14:03;;;;;;;;;17.67;16.67;;;;;;;;5028910;28;51116;-57
2023/06/18 13:16:29;;;;;;;;;15.00;15.00;;;;;;;;5018930;28;51446;-57
2023/06/18 13:18:54;;;;;;;;;13.33;13.33;;;;;;;;5026349;28;51020;-56
2023/06/18 13:21:20;;;;;;;;;15.33;15.00;;;;;;;;5021107;28;51256;-56
2023/06/18 13:23:45;;;;;;;;;16.00;15.33;;;;;;;;5020392;28;51232;-58
2023/06/18 13:26:10;;;;;;;;;15.33;15.33;;;;;;;;5030909;28;51249;-56
2023/06/18 13:28:35;;;;;;;;;16.67;15.67;;;;;;;;5024257;28;51968;-57
2023/06/18 13:31:00;;;;;;;;;13.67;12.67;;;;;;;;5013330;28;51216;-58
2023/06/18 13:33:26;;;;;;;;;13.67;13.33;;;;;;;;5016154;28;51040;-56
2023/06/18 13:35:51;;;;;;;;;78.00;75.25;;;;;;;;5030537;28;51022;-57
2023/06/18 13:38:16;;;;;;;;;17.75;16.75;;;;;;;;5013223;28;51205;-58
2023/06/18 13:40:42;;;;;;;;;15.33;15.00;;;;;;;;5028658;28;51198;-57
2023/06/18 13:43:11;;;;;;;;;15.00;15.00;;;;;;;;5029551;28;51114;-56
2023/06/18 13:45:36;;;;;;;;;13.50;13.50;;;;;;;;5031707;28;51003;-57
2023/06/18 13:48:02;;;;;;;;;11.67;11.67;;;;;;;;5029591;28;51112;-57
2023/06/18 13:50:27;;;;;;;;;14.33;14.33;;;;;;;;5028321;28;51009;-57
2023/06/18 13:52:52;;;;;;;;;15.00;15.00;;;;;;;;5030263;28;51199;-56
2023/06/18 13:55:17;;;;;;;;;11.00;10.33;;;;;;;;5022986;28;50855;-57
2023/06/18 13:57:42;;;;;;;;;15.00;14.67;;;;;;;;5028258;28;50937;-57
2023/06/18 14:00:08;;;;;;;;;16.00;16.00;;;;;;;;5014006;28;50870;-56
2023/06/18 14:02:33;;;;;;;;;13.00;13.00;;;;;;;;5032815;28;51107;-58
2023/06/18 14:04:59;;;;;;;;;15.00;14.67;;;;;;;;5033843;28;50934;-57
2023/06/18 14:07:24;;;;;;;;;15.25;15.25;;;;;;;;5031282;28;50916;-56
2023/06/18 14:09:50;;;;;;;;;13.50;12.25;;;;;;;;5033140;28;51140;-57
2023/06/18 14:12:15;;;;;;;;;13.00;12.00;;;;;;;;5028404;28;51012;-57